Flight Track Log - Related Links

Times and Time Zones

All times are in EDT time to prevent confusion due to time zone crossing. See the FSR411 flight status page for this flight to view local times or setup timezone preferences in your user account.

Time Position Orientation Groundspeed Altitude Reporting Facility
EDT Latitude Longitude Course Direction KTS MPH feet Rate Location/Type
Tue 07:34:03 40.0969 -88.2225 65° Northeast 275 316 4,100  Level Chicago Center
Tue 07:35:05 40.1225 -88.1347 69° East 269 310 6,900 3,366 Climbing Chicago Center
Tue 07:36:06 40.1597 -88.0147 68° East 290 334 11,000 3,561 Climbing Chicago Center
Tue 07:37:08 40.1953 -87.8981 68° East 326 375 14,200 2,976 Climbing Chicago Center
Tue 07:38:00 40.2670 -87.5158 65° Northeast  Level FlightAware Approximate
Tue 07:38:09 40.2356 -87.7644 68° East 379 436 17,100  Level Chicago Center
Tue 07:39:00 40.3042 -87.4098 65° Northeast  Level FlightAware Approximate
Tue 07:39:10 40.2794 -87.6206 68° East 415 478 20,100  Level Chicago Center
Tue 07:40:12 40.3261 -87.4686 68° East 444 511 22,600 1,415 Climbing Chicago Center
Tue 07:41:13 40.3739 -87.3067 69° East 466 536 23,000 195 Climbing Chicago Center
Tue 07:42:15 40.4217 -87.1472 68° East 470 541 23,000  Level Chicago Center
Tue 07:43:16 40.4681 -86.9908 69° East 462 532 23,000  Level Chicago Center
Tue 07:44:18 40.5236 -86.8031 69° East 461 531 23,000  Level Chicago Center
Tue 07:45:20 40.5683 -86.6439 70° East 463 533 23,000  Level Chicago Center
Tue 07:46:21 40.6144 -86.4861 69° East 463 533 23,000  Level Chicago Center
Tue 07:47:23 40.6611 -86.3250 69° East 468 539 23,000  Level Chicago Center
Tue 07:48:24 40.7075 -86.1647 69° East 466 536 23,000  Level Chicago Center
Tue 07:49:26 40.7533 -86.0039 69° East 468 539 23,000  Level Chicago Center
Tue 07:50:28 40.7978 -85.8447 70° East 466 536 23,000  Level Chicago Center
Tue 07:51:29 40.8456 -85.6867 68° East 467 537 23,000  Level Chicago Center
Tue 07:52:31 40.9033 -85.4978 68° East 468 539 23,000  Level Chicago Center
Tue 07:53:33 40.9511 -85.3386 68° East 469 540 23,000  Level Chicago Center
Tue 07:54:35 41.0003 -85.1747 68° East 481 554 23,000  Level Chicago Center
Tue 07:55:36 41.0494 -85.0131 68° East 479 551 23,000 -293 Level Chicago Center
Tue 07:56:38 41.0975 -84.8528 68° East 475 547 22,400 -823 Descending Chicago Center
Tue 07:57:40 41.1447 -84.6931 69° East 471 542 21,300 -1,122 Descending Chicago Center
Tue 07:58:41 41.1997 -84.5092 68° East 455 524 20,100 -1,536 Descending Chicago Center
Tue 07:59:45 41.2458 -84.3542 68° East 454 522 18,100 -1,728 Descending Chicago Center
Tue 08:00:46 41.2883 -84.2047 69° East 440 506 16,500 -1,512 Descending Chicago Center
Tue 08:01:48 41.3308 -84.0597 69° East 426 490 15,000 -1,403 Descending Chicago Center
Tue 08:02:50 41.3722 -83.9158 69° East 420 483 13,600 -1,543 Descending Chicago Center
Tue 08:03:33 41.4064 -83.7919 70° East 420 483 12,300 -1,515 Descending Cleveland Center
Tue 08:04:33 41.4456 -83.6553 69° East 400 460 11,000 -1,100 Descending Cleveland Center
Tue 08:05:33 41.4903 -83.5356 63° Northeast 384 442 10,100 -500 Descending Cleveland Center
Tue 08:06:33 41.5414 -83.4131 61° Northeast 372 428 10,000 -57 Descending Cleveland Center
Tue 08:07:19 41.5792 -83.3175 62° Northeast 379 436 10,000  Level Cleveland Center
Tue 08:08:44 41.6411 -83.1617 62° Northeast 316 364 10,000 -179 Level Cleveland Center
Tue 08:09:33 41.6742 -83.0767 62° Northeast 327 376 9,600 -991 Descending Cleveland Center
Tue 08:10:39 41.7161 -82.9700 62° Northeast 283 326 8,100 -793 Descending Cleveland Center
Tue 08:11:34 41.7492 -82.8822 63° Northeast 290 334 8,000 -496 Descending Cleveland Center
Tue 08:12:40 41.8092 -82.8033 44° Northeast 274 315 7,100 -472 Descending Cleveland Center
Tue 08:13:41 41.8883 -82.8061 359° North 265 305 7,000 -694 Descending Cleveland Center
Tue 08:14:41 41.9611 -82.8172 354° North 263 303 5,700 -1,587 Descending Cleveland Center
Tue 08:15:42 42.0319 -82.8225 357° North 249 287 3,800 -1,266 Descending Cleveland Center
Tue 08:16:49 42.1044 -82.8361 352° North 247 284 3,000 -440 Descending Cleveland Center
Tue 08:17:31 42.1567 -82.8436 354° North 257 296 3,000  Level Cleveland Center
Tue 08:18:32 42.2272 -82.8544 354° North 254 292 3,000  Level Cleveland Center
Tue 08:19:33 42.2828 -82.8872 336° Northwest 183 211 3,000 -257 Level Cleveland Center
Tue 08:20:52 42.3339 -82.9369 324° Northwest 174 200 2,400 -534 Descending Cleveland Center
Tue 08:21:59 42.3647 -82.9633 328° Northwest 105 121 1,700 -645 Descending Cleveland Center
Tue 08:22:53 42.3869 -82.9897 319° Northwest 109 125 1,100 -495 Descending Cleveland Center
Tue 08:23:36 42.4033 -83.0042 327° Northwest 111 128 900 -279 Descending Cleveland Center

Login

Don't have an account? Register now (free) for customized features, flight alerts, and more!